createdAt,value
2023-03-02T00:01:57.696Z,100132.03
2023-03-02T00:04:43.125Z,100143.00
2023-03-02T00:07:14.999Z,100148.44
2023-03-02T00:09:45.576Z,100151.88
2023-03-02T00:12:14.704Z,100152.84
2023-03-02T00:14:43.176Z,100159.81
2023-03-02T00:17:11.702Z,100165.56
2023-03-02T00:19:40.060Z,100169.31
2023-03-02T00:22:10.075Z,100169.06
2023-03-02T00:24:39.123Z,100174.03
2023-03-02T00:27:07.528Z,100175.00
2023-03-02T00:29:35.844Z,100167.31
2023-03-02T00:32:04.871Z,100178.59
2023-03-02T00:34:33.317Z,100171.72
2023-03-02T00:37:01.655Z,100173.44
2023-03-02T00:39:31.297Z,100183.97
2023-03-02T00:41:59.602Z,100185.69
2023-03-02T00:44:27.888Z,100188.63
2023-03-02T00:46:56.303Z,100188.94
2023-03-02T00:49:24.959Z,100187.91
2023-03-02T00:51:53.273Z,100188.88
2023-03-02T00:54:21.598Z,100182.69
2023-03-02T00:56:49.948Z,100195.53
2023-03-02T00:59:27.746Z,100201.31
2023-03-02T01:02:01.404Z,100191.56
2023-03-02T01:04:32.603Z,100201.63
2023-03-02T01:07:05.008Z,100200.59
2023-03-02T01:09:33.864Z,100201.22
2023-03-02T01:12:02.262Z,100204.97
2023-03-02T01:14:31.012Z,100206.69
2023-03-02T01:16:59.629Z,100215.19
2023-03-02T01:19:27.997Z,100205.75
2023-03-02T01:21:56.351Z,100207.03
2023-03-02T01:24:24.912Z,100211.53
2023-03-02T01:26:53.468Z,100216.00
2023-03-02T01:29:21.918Z,100217.72
2023-03-02T01:31:50.384Z,100217.44
2023-03-02T01:34:18.809Z,100225.47
2023-03-02T01:36:47.106Z,100234.78
2023-03-02T01:39:18.692Z,100245.63
2023-03-02T01:41:48.174Z,100241.75
2023-03-02T01:44:44.291Z,100243.75
2023-03-02T01:47:28.123Z,100250.56
2023-03-02T01:50:05.716Z,100258.59
2023-03-02T01:52:39.245Z,100261.41
2023-03-02T01:55:11.555Z,100257.19
2023-03-02T01:57:46.975Z,100259.34
2023-03-02T02:00:26.123Z,100259.50
2023-03-02T02:03:09.674Z,100267.88
2023-03-02T02:05:48.794Z,100267.38
2023-03-02T02:08:17.182Z,100273.41
2023-03-02T02:10:45.596Z,100271.84
2023-03-02T02:13:13.980Z,100270.72
2023-03-02T02:15:42.496Z,100276.91
2023-03-02T02:18:11.196Z,100273.78
2023-03-02T02:20:42.992Z,100276.22
2023-03-02T02:23:31.043Z,100278.69
2023-03-02T02:26:22.055Z,100277.56
2023-03-02T02:29:23.713Z,100279.25
2023-03-02T02:31:58.449Z,100287.59
2023-03-02T02:34:29.888Z,100288.03
2023-03-02T02:37:13.113Z,100284.41
2023-03-02T02:39:46.181Z,100285.59
2023-03-02T02:42:20.096Z,100291.63
2023-03-02T02:44:49.080Z,100284.09
2023-03-02T02:47:23.190Z,100278.91
2023-03-02T02:49:57.078Z,100284.13
2023-03-02T02:52:29.164Z,100279.75
2023-03-02T02:54:59.822Z,100282.47
2023-03-02T02:57:31.467Z,100274.75
2023-03-02T03:00:03.059Z,100279.81
2023-03-02T03:02:38.662Z,100284.34
2023-03-02T03:05:07.414Z,100282.75
2023-03-02T03:07:35.912Z,100275.78
2023-03-02T03:10:15.397Z,100281.00
2023-03-02T03:12:44.641Z,100270.38
2023-03-02T03:15:15.163Z,100258.78
2023-03-02T03:17:56.137Z,100263.50
2023-03-02T03:20:25.754Z,100262.16
2023-03-02T03:23:00.191Z,100255.19
2023-03-02T03:25:28.635Z,100258.66
2023-03-02T03:27:56.987Z,100253.69
2023-03-02T03:30:25.338Z,100262.75
2023-03-02T03:32:53.625Z,100244.25
2023-03-02T03:35:21.959Z,100250.19
2023-03-02T03:37:50.531Z,100243.72
2023-03-02T03:40:18.934Z,100246.38
2023-03-02T03:42:47.656Z,100246.22
2023-03-02T03:45:15.942Z,100239.44
2023-03-02T03:47:44.235Z,100235.72
2023-03-02T03:50:12.766Z,100234.00
2023-03-02T03:52:41.112Z,100231.53
2023-03-02T03:55:09.926Z,100226.00
2023-03-02T03:57:38.570Z,100223.22
2023-03-02T04:00:11.452Z,100227.34
2023-03-02T04:02:39.947Z,100218.50
2023-03-02T04:05:09.186Z,100216.06
2023-03-02T04:07:38.593Z,100214.81
2023-03-02T04:10:08.368Z,100201.59
2023-03-02T04:12:38.981Z,100198.06
2023-03-02T04:15:09.489Z,100193.75
2023-03-02T04:17:37.793Z,100187.16
2023-03-02T04:20:10.493Z,100176.72
2023-03-02T04:22:38.968Z,100173.44
2023-03-02T04:25:07.721Z,100177.81
2023-03-02T04:27:36.106Z,100166.91
2023-03-02T04:30:04.925Z,100167.22
2023-03-02T04:32:33.262Z,100149.63
2023-03-02T04:35:01.659Z,100149.16
2023-03-02T04:37:30.060Z,100146.66
2023-03-02T04:39:58.438Z,100141.81
2023-03-02T04:42:26.763Z,100135.69
2023-03-02T04:44:55.066Z,100121.66
2023-03-02T04:47:23.886Z,100124.47
2023-03-02T04:49:55.624Z,100113.25
2023-03-02T04:52:24.171Z,100111.22
2023-03-02T04:54:52.826Z,100101.25
2023-03-02T04:57:21.149Z,100098.47
2023-03-02T04:59:49.541Z,100084.41
2023-03-02T05:02:18.501Z,100085.72
2023-03-02T05:04:46.979Z,100083.44
2023-03-02T05:07:15.353Z,100077.81
2023-03-02T05:09:43.769Z,100075.75
2023-03-02T05:12:12.154Z,100071.66
2023-03-02T05:14:40.455Z,100051.97
2023-03-02T05:17:08.757Z,100056.06
2023-03-02T05:19:37.150Z,100045.56
2023-03-02T05:22:05.596Z,100038.63
2023-03-02T05:24:33.921Z,100023.78
2023-03-02T05:27:02.341Z,100012.56
2023-03-02T05:29:30.638Z,100014.06
2023-03-02T05:31:59.397Z,100004.06
2023-03-02T05:34:27.720Z,99995.06
2023-03-02T05:36:58.064Z,99995.81
2023-03-02T05:39:26.404Z,99980.97
2023-03-02T05:41:54.698Z,99981.44
2023-03-02T05:44:23.023Z,99978.59
2023-03-02T05:46:51.410Z,99971.16
2023-03-02T05:49:19.761Z,99965.00
2023-03-02T05:51:48.063Z,99953.97
2023-03-02T05:54:17.335Z,99955.50
2023-03-02T05:56:45.692Z,99942.94
2023-03-02T05:59:17.142Z,99932.16
2023-03-02T06:01:46.376Z,99935.78
2023-03-02T06:04:14.898Z,99927.28
2023-03-02T06:06:43.239Z,99920.31
2023-03-02T06:09:11.535Z,99914.63
2023-03-02T06:11:39.931Z,99914.09
2023-03-02T06:14:08.220Z,99907.63
2023-03-02T06:16:38.200Z,99898.34
2023-03-02T06:19:06.881Z,99894.97
2023-03-02T06:21:35.224Z,99888.25
2023-03-02T06:24:03.639Z,99881.84
2023-03-02T06:26:32.433Z,99881.53
2023-03-02T06:29:00.945Z,99875.09
2023-03-02T06:31:29.327Z,99856.38
2023-03-02T06:33:57.884Z,99852.94
2023-03-02T06:36:26.198Z,99839.84
2023-03-02T06:38:55.082Z,99842.91
2023-03-02T06:41:23.820Z,99829.28
2023-03-02T06:43:52.560Z,99831.28
2023-03-02T06:46:20.916Z,99829.44
2023-03-02T06:48:49.962Z,99814.28
2023-03-02T06:51:19.132Z,99809.84
2023-03-02T06:53:47.430Z,99806.50
2023-03-02T06:56:15.840Z,99801.84
2023-03-02T06:58:44.205Z,99790.78
2023-03-02T07:01:12.557Z,99786.13
2023-03-02T07:03:41.008Z,99776.63
2023-03-02T07:06:09.459Z,99777.63
2023-03-02T07:08:37.821Z,99766.56
2023-03-02T07:11:08.223Z,99770.91
2023-03-02T07:13:36.525Z,99753.66
2023-03-02T07:16:11.204Z,99756.19
2023-03-02T07:18:39.877Z,99748.19
2023-03-02T07:21:08.356Z,99748.41
2023-03-02T07:23:37.156Z,99740.16
2023-03-02T07:26:09.266Z,99733.22
2023-03-02T07:28:42.868Z,99729.09
2023-03-02T07:31:12.486Z,99726.50
2023-03-02T07:33:41.665Z,99717.75
2023-03-02T07:36:10.208Z,99721.03
2023-03-02T07:38:39.526Z,99718.97
2023-03-02T07:41:09.454Z,99708.66
2023-03-02T07:43:38.280Z,99705.81
2023-03-02T07:46:06.917Z,99699.63
2023-03-02T07:48:35.365Z,99692.16
2023-03-02T07:51:05.807Z,99700.63
2023-03-02T07:53:34.407Z,99697.78
2023-03-02T07:56:07.952Z,99692.91
2023-03-02T07:58:36.388Z,99684.97
2023-03-02T08:01:05.374Z,99681.84
2023-03-02T08:03:33.960Z,99681.28
2023-03-02T08:06:11.001Z,99678.69
2023-03-02T08:08:39.413Z,99673.03
2023-03-02T08:11:13.430Z,99672.28
2023-03-02T08:13:43.770Z,99663.81
2023-03-02T08:16:14.397Z,99663.81
2023-03-02T08:18:44.000Z,99661.75
2023-03-02T08:21:18.310Z,99662.28
2023-03-02T08:23:46.943Z,99654.56
2023-03-02T08:26:17.466Z,99658.16
2023-03-02T08:28:46.043Z,99649.47
2023-03-02T08:31:14.867Z,99660.75
2023-03-02T08:33:43.509Z,99651.53
2023-03-02T08:36:17.741Z,99658.69
2023-03-02T08:38:46.790Z,99654.88
2023-03-02T08:41:18.453Z,99648.47
2023-03-02T08:43:47.370Z,99640.00
2023-03-02T08:46:18.065Z,99640.53
2023-03-02T08:48:46.919Z,99645.97
2023-03-02T08:51:21.377Z,99641.09
2023-03-02T08:53:51.935Z,99645.22
2023-03-02T08:56:23.260Z,99642.94
2023-03-02T08:58:52.652Z,99638.59
2023-03-02T09:01:24.715Z,99640.97
2023-03-02T09:03:53.694Z,99644.00
2023-03-02T09:06:22.236Z,99638.91
2023-03-02T09:08:50.748Z,99643.03
2023-03-02T09:11:19.221Z,99647.91
2023-03-02T09:13:47.699Z,99640.97
2023-03-02T09:16:17.164Z,99640.19
2023-03-02T09:18:45.557Z,99640.75
2023-03-02T09:21:14.181Z,99641.25
2023-03-02T09:23:42.542Z,99636.91
2023-03-02T09:26:11.152Z,99640.81
2023-03-02T09:28:39.990Z,99639.81
2023-03-02T09:31:09.762Z,99642.19
2023-03-02T09:33:38.110Z,99641.97
2023-03-02T09:36:12.466Z,99638.69
2023-03-02T09:38:40.797Z,99646.16
2023-03-02T09:41:09.141Z,99647.78
2023-03-02T09:43:43.487Z,99647.06
2023-03-02T09:46:18.736Z,99648.69
2023-03-02T09:48:51.141Z,99645.63
2023-03-02T09:51:52.984Z,99648.00
2023-03-02T09:54:28.258Z,99650.16
2023-03-02T09:56:58.932Z,99652.00
2023-03-02T09:59:42.984Z,99653.59
2023-03-02T10:02:29.598Z,99646.72
2023-03-02T10:05:03.390Z,99651.13
2023-03-02T10:07:35.576Z,99649.38
2023-03-02T10:10:28.216Z,99650.22
2023-03-02T10:13:02.423Z,99658.72
2023-03-02T10:15:57.297Z,99661.84
2023-03-02T10:18:35.569Z,99664.72
2023-03-02T10:21:31.185Z,99666.09
2023-03-02T10:24:18.637Z,99661.06
2023-03-02T10:26:52.158Z,99666.22
2023-03-02T10:29:56.707Z,99662.69
2023-03-02T10:32:47.672Z,99674.56
2023-03-02T10:35:20.281Z,99671.81
2023-03-02T10:37:49.323Z,99680.31
2023-03-02T10:40:48.366Z,99681.16
2023-03-02T10:43:34.891Z,99669.41
2023-03-02T10:46:09.533Z,99682.25
2023-03-02T10:48:53.369Z,99684.91
2023-03-02T10:51:33.663Z,99684.97
2023-03-02T10:54:14.258Z,99691.13
2023-03-02T10:56:53.058Z,99690.94
2023-03-02T10:59:30.020Z,99686.66
2023-03-02T11:02:24.324Z,99700.78
2023-03-02T11:05:21.470Z,99699.81
2023-03-02T11:07:59.253Z,99692.41
2023-03-02T11:10:37.544Z,99692.97
2023-03-02T11:13:29.765Z,99696.34
2023-03-02T11:16:03.996Z,99698.19
2023-03-02T11:19:26.966Z,99695.16
2023-03-02T11:22:07.620Z,99707.50
2023-03-02T11:24:46.384Z,99703.66
2023-03-02T11:27:26.223Z,99702.94
2023-03-02T11:30:16.829Z,99706.78
2023-03-02T11:33:18.762Z,99711.41
2023-03-02T11:35:52.655Z,99716.28
2023-03-02T11:38:27.466Z,99718.88
2023-03-02T11:41:14.385Z,99716.09
2023-03-02T11:43:42.729Z,99715.34
2023-03-02T11:46:24.712Z,99721.97
2023-03-02T11:48:58.671Z,99729.41
2023-03-02T11:51:42.358Z,99733.22
2023-03-02T11:54:42.383Z,99736.53
2023-03-02T11:57:49.472Z,99733.50
2023-03-02T12:00:37.090Z,99742.94
2023-03-02T12:03:22.004Z,99744.47
2023-03-02T12:05:53.296Z,99744.19
2023-03-02T12:08:21.540Z,99753.66
2023-03-02T12:11:10.508Z,99764.84
2023-03-02T12:13:41.229Z,99764.53
2023-03-02T12:16:35.674Z,99775.50
2023-03-02T12:19:19.506Z,99773.44
2023-03-02T12:22:00.262Z,99779.03
2023-03-02T12:24:34.773Z,99789.47
2023-03-02T12:27:15.022Z,99796.59
2023-03-02T12:29:46.965Z,99788.66
2023-03-02T12:32:33.596Z,99785.59
2023-03-02T12:35:22.069Z,99793.94
2023-03-02T12:38:32.121Z,99805.66
2023-03-02T12:41:18.327Z,99818.13
2023-03-02T12:44:01.639Z,99814.47
2023-03-02T12:46:30.068Z,99826.91
2023-03-02T12:49:12.621Z,99828.91
2023-03-02T12:51:55.462Z,99833.47
2023-03-02T12:54:35.787Z,99838.78
2023-03-02T12:57:15.176Z,99850.72
2023-03-02T12:59:44.918Z,99853.25
2023-03-02T13:02:19.679Z,99859.06
2023-03-02T13:05:06.126Z,99865.19
2023-03-02T13:07:42.963Z,99869.25
2023-03-02T13:10:40.197Z,99868.47
2023-03-02T13:13:28.033Z,99876.66
2023-03-02T13:16:01.806Z,99883.28
2023-03-02T13:18:33.628Z,99888.69
2023-03-02T13:21:03.705Z,99886.94
2023-03-02T13:23:33.988Z,99893.84
2023-03-02T13:26:05.778Z,99894.88
2023-03-02T13:28:37.807Z,99895.91
2023-03-02T13:31:16.456Z,99898.97
2023-03-02T13:33:47.176Z,99903.59
2023-03-02T13:36:36.422Z,99911.50
2023-03-02T13:39:08.541Z,99912.78
2023-03-02T13:41:38.377Z,99912.50
2023-03-02T13:44:20.802Z,99920.41
2023-03-02T13:46:49.722Z,99922.19
2023-03-02T13:49:35.120Z,99929.53
2023-03-02T13:52:19.732Z,99930.03
2023-03-02T13:54:48.972Z,99934.13
2023-03-02T13:57:29.188Z,99949.91
2023-03-02T14:00:01.327Z,99950.38
2023-03-02T14:02:31.556Z,99952.16
2023-03-02T14:05:00.005Z,99951.13
2023-03-02T14:07:28.348Z,99958.00
2023-03-02T14:09:57.607Z,99961.28
2023-03-02T14:12:31.912Z,99965.31
2023-03-02T14:15:03.210Z,99959.94
2023-03-02T14:17:31.837Z,99968.84
2023-03-02T14:20:00.383Z,99972.16
2023-03-02T14:22:32.877Z,99973.13
2023-03-02T14:25:01.378Z,99980.00
2023-03-02T14:27:32.000Z,99980.22
2023-03-02T14:30:01.698Z,99986.06
2023-03-02T14:32:30.244Z,99982.97
2023-03-02T14:34:59.068Z,99995.94
2023-03-02T14:37:31.159Z,99992.09
2023-03-02T14:39:59.690Z,99992.09
2023-03-02T14:42:27.992Z,99996.16
2023-03-02T14:44:56.311Z,99994.63
2023-03-02T14:47:25.575Z,99999.41
2023-03-02T14:49:59.544Z,100007.06
2023-03-02T14:52:48.796Z,100002.72
2023-03-02T14:55:26.654Z,100011.88
2023-03-02T14:58:02.220Z,100002.72
2023-03-02T15:00:30.604Z,100007.56
2023-03-02T15:03:00.363Z,100014.41
2023-03-02T15:05:28.862Z,100012.09
2023-03-02T15:07:58.867Z,100007.50
2023-03-02T15:10:27.388Z,100011.84
2023-03-02T15:12:55.697Z,100010.28
2023-03-02T15:15:25.559Z,100017.63
2023-03-02T15:17:53.862Z,100020.63
2023-03-02T15:20:22.258Z,100015.53
2023-03-02T15:22:50.563Z,100013.22
2023-03-02T15:25:19.004Z,100024.91
2023-03-02T15:27:47.340Z,100026.66
2023-03-02T15:30:15.656Z,100024.84
2023-03-02T15:32:44.081Z,100025.34
2023-03-02T15:35:15.617Z,100023.50
2023-03-02T15:37:44.044Z,100025.25
2023-03-02T15:40:13.074Z,100027.00
2023-03-02T15:42:41.430Z,100019.59
2023-03-02T15:45:09.920Z,100026.94
2023-03-02T15:47:38.975Z,100026.38
2023-03-02T15:50:07.696Z,100026.88
2023-03-02T15:52:35.994Z,100025.81
2023-03-02T15:55:04.719Z,100021.97
2023-03-02T15:57:38.617Z,100036.44
2023-03-02T16:00:08.121Z,100041.75
2023-03-02T16:02:36.656Z,100032.28
2023-03-02T16:05:05.238Z,100034.81
2023-03-02T16:07:33.825Z,100050.53
2023-03-02T16:10:02.310Z,100045.44
2023-03-02T16:12:30.614Z,100048.44
2023-03-02T16:14:58.922Z,100055.31
2023-03-02T16:17:27.272Z,100045.09
2023-03-02T16:19:55.640Z,100047.59
2023-03-02T16:22:24.014Z,100050.59
2023-03-02T16:24:52.438Z,100048.78
2023-03-02T16:27:21.417Z,100048.50
2023-03-02T16:29:49.804Z,100041.78
2023-03-02T16:32:18.265Z,100044.78
2023-03-02T16:34:46.625Z,100044.78
2023-03-02T16:37:15.087Z,100048.56
2023-03-02T16:39:44.472Z,100048.28
2023-03-02T16:42:12.779Z,100050.50
2023-03-02T16:44:41.155Z,100052.53
2023-03-02T16:47:09.478Z,100051.19
2023-03-02T16:49:37.776Z,100042.50
2023-03-02T16:52:06.273Z,100049.84
2023-03-02T16:54:34.653Z,100053.63
2023-03-02T16:57:03.038Z,100043.38
2023-03-02T16:59:31.386Z,100054.75
2023-03-02T17:01:59.689Z,100046.09
2023-03-02T17:04:28.194Z,100045.03
2023-03-02T17:07:00.749Z,100057.19
2023-03-02T17:09:29.731Z,100048.50
2023-03-02T17:11:58.155Z,100058.63
2023-03-02T17:14:27.049Z,100049.97
2023-03-02T17:16:57.341Z,100050.16
2023-03-02T17:19:27.827Z,100059.03
2023-03-02T17:21:59.220Z,100053.59
2023-03-02T17:24:29.090Z,100048.19
2023-03-02T17:26:58.115Z,100052.72
2023-03-02T17:29:26.512Z,100044.06
2023-03-02T17:31:55.046Z,100050.63
2023-03-02T17:34:23.494Z,100048.78
2023-03-02T17:36:51.795Z,100050.53
2023-03-02T17:39:20.244Z,100045.88
2023-03-02T17:41:48.558Z,100050.41
2023-03-02T17:44:16.912Z,100050.88
2023-03-02T17:46:48.888Z,100051.03
2023-03-02T17:49:17.263Z,100048.44
2023-03-02T17:51:45.653Z,100046.13
2023-03-02T17:54:14.015Z,100048.34
2023-03-02T17:56:42.405Z,100045.72
2023-03-02T17:59:11.836Z,100053.81
2023-03-02T18:01:40.215Z,100054.78
2023-03-02T18:04:08.570Z,100054.97
2023-03-02T18:06:37.119Z,100051.13
2023-03-02T18:09:05.524Z,100055.59
2023-03-02T18:11:34.205Z,100049.72
2023-03-02T18:14:02.717Z,100049.16
2023-03-02T18:16:31.915Z,100043.75
2023-03-02T18:19:00.285Z,100040.84
2023-03-02T18:21:29.254Z,100047.97
2023-03-02T18:23:58.275Z,100037.75
2023-03-02T18:26:26.781Z,100045.84
2023-03-02T18:28:55.070Z,100042.00
2023-03-02T18:31:23.927Z,100038.59
2023-03-02T18:33:52.746Z,100038.28
2023-03-02T18:36:21.083Z,100045.59
2023-03-02T18:38:49.435Z,100041.75
2023-03-02T18:41:17.759Z,100044.22
2023-03-02T18:43:46.172Z,100033.25
2023-03-02T18:46:26.301Z,100036.22
2023-03-02T18:48:56.057Z,100035.13
2023-03-02T18:51:26.200Z,100046.00
2023-03-02T18:53:55.385Z,100029.44
2023-03-02T18:56:24.463Z,100037.97
2023-03-02T18:58:53.086Z,100035.06
2023-03-02T19:01:21.812Z,100039.56
2023-03-02T19:03:51.008Z,100034.63
2023-03-02T19:06:21.434Z,100037.59
2023-03-02T19:08:50.433Z,100027.88
2023-03-02T19:11:18.810Z,100032.84
2023-03-02T19:13:47.406Z,100029.13
2023-03-02T19:16:18.275Z,100028.53
2023-03-02T19:18:46.905Z,100031.97
2023-03-02T19:21:15.353Z,100028.28
2023-03-02T19:23:45.658Z,100021.34
2023-03-02T19:26:15.253Z,100025.53
2023-03-02T19:28:43.618Z,100031.44
2023-03-02T19:31:12.313Z,100024.50
2023-03-02T19:33:41.909Z,100028.66
2023-03-02T19:36:11.062Z,100026.22
2023-03-02T19:38:42.502Z,100031.50
2023-03-02T19:41:14.491Z,100019.72
2023-03-02T19:43:43.734Z,100018.63
2023-03-02T19:46:12.365Z,100008.91
2023-03-02T19:48:40.759Z,100014.63
2023-03-02T19:51:10.314Z,100010.00
2023-03-02T19:53:39.897Z,100004.13
2023-03-02T19:56:13.562Z,99997.97
2023-03-02T19:58:50.528Z,100004.47
2023-03-02T20:01:25.546Z,100007.38
2023-03-02T20:03:55.462Z,100005.84
2023-03-02T20:06:26.665Z,99999.97
2023-03-02T20:08:55.108Z,100004.00
2023-03-02T20:11:23.682Z,100006.47
2023-03-02T20:13:53.032Z,99999.84
2023-03-02T20:16:23.699Z,100001.53
2023-03-02T20:18:53.484Z,100002.78
2023-03-02T20:21:22.207Z,99997.69
2023-03-02T20:23:51.510Z,99997.38
2023-03-02T20:26:20.260Z,99999.84
2023-03-02T20:28:49.747Z,100011.47
2023-03-02T20:31:19.260Z,100012.69
2023-03-02T20:33:50.989Z,100005.59
2023-03-02T20:36:28.512Z,100019.66
2023-03-02T20:39:33.227Z,100015.00
2023-03-02T20:42:02.717Z,100009.59
2023-03-02T20:44:34.119Z,100016.88
2023-03-02T20:47:09.191Z,100014.25
2023-03-02T20:49:39.061Z,100014.38
2023-03-02T20:52:09.256Z,100014.84
2023-03-02T20:54:41.541Z,100011.75
2023-03-02T20:57:10.753Z,100018.25
2023-03-02T20:59:39.357Z,100019.47
2023-03-02T21:02:07.741Z,100019.63
2023-03-02T21:04:37.055Z,100020.53
2023-03-02T21:07:05.906Z,100025.03
2023-03-02T21:09:34.291Z,100020.38
2023-03-02T21:12:03.315Z,100021.78
2023-03-02T21:14:34.218Z,100022.72
2023-03-02T21:17:03.261Z,100018.69
2023-03-02T21:19:33.519Z,100024.84
2023-03-02T21:22:02.403Z,100021.88
2023-03-02T21:24:31.205Z,100013.38
2023-03-02T21:27:01.242Z,100023.88
2023-03-02T21:29:30.035Z,100017.72
2023-03-02T21:31:58.569Z,100020.16
2023-03-02T21:34:26.991Z,100020.31
2023-03-02T21:36:55.413Z,100015.53
2023-03-02T21:39:24.607Z,100019.97
2023-03-02T21:41:54.161Z,100016.88
2023-03-02T21:44:22.585Z,100022.59
2023-03-02T21:46:51.789Z,100019.19
2023-03-02T21:49:22.705Z,100020.88
2023-03-02T21:51:51.488Z,100019.47
2023-03-02T21:54:19.839Z,100014.19
2023-03-02T21:56:48.193Z,100019.44
2023-03-02T21:59:16.531Z,100017.53
2023-03-02T22:01:45.116Z,100019.69
2023-03-02T22:04:13.458Z,100025.69
2023-03-02T22:06:41.799Z,100029.41
2023-03-02T22:09:12.095Z,100035.41
2023-03-02T22:11:40.470Z,100032.00
2023-03-02T22:14:14.343Z,100036.47
2023-03-02T22:16:46.033Z,100035.84
2023-03-02T22:19:29.848Z,100041.06
2023-03-02T22:22:04.205Z,100052.66
2023-03-02T22:24:34.973Z,100043.97
2023-03-02T22:27:06.321Z,100054.75
2023-03-02T22:29:46.723Z,100054.91
2023-03-02T22:32:24.041Z,100055.47
2023-03-02T22:35:00.696Z,100055.31
2023-03-02T22:37:33.265Z,100058.22
2023-03-02T22:40:30.358Z,100066.69
2023-03-02T22:43:37.422Z,100071.13
2023-03-02T22:46:18.350Z,100073.56
2023-03-02T22:48:48.691Z,100071.25
2023-03-02T22:51:20.011Z,100076.03
2023-03-02T22:53:52.099Z,100086.34
2023-03-02T22:56:38.014Z,100086.81
2023-03-02T22:59:25.742Z,100093.28
2023-03-02T23:02:16.010Z,100089.41
2023-03-02T23:04:44.556Z,100088.28
2023-03-02T23:07:15.414Z,100097.53
2023-03-02T23:09:43.737Z,100096.44
2023-03-02T23:12:25.151Z,100098.88
2023-03-02T23:14:58.745Z,100101.34
2023-03-02T23:17:40.800Z,100105.00
2023-03-02T23:20:13.098Z,100112.56
2023-03-02T23:22:42.280Z,100116.19
2023-03-02T23:25:10.815Z,100126.97
2023-03-02T23:27:39.168Z,100119.09
2023-03-02T23:30:07.867Z,100120.31
2023-03-02T23:32:37.007Z,100120.00
2023-03-02T23:35:05.517Z,100133.88
2023-03-02T23:37:34.102Z,100135.88
2023-03-02T23:40:02.411Z,100136.19
2023-03-02T23:42:31.006Z,100141.75
2023-03-02T23:44:59.638Z,100146.06
2023-03-02T23:47:27.916Z,100161.50
2023-03-02T23:49:56.238Z,100157.94
2023-03-02T23:52:24.692Z,100167.81
2023-03-02T23:54:53.172Z,100169.81
2023-03-02T23:57:21.487Z,100172.94
2023-03-02T23:59:49.779Z,100182.03
